createdAt,value
2023-02-07T00:00:57.001Z,-2.70
2023-02-07T00:03:24.798Z,-2.70
2023-02-07T00:05:52.587Z,-2.70
2023-02-07T00:08:20.353Z,-2.70
2023-02-07T00:10:48.147Z,-2.80
2023-02-07T00:13:15.922Z,-2.80
2023-02-07T00:15:45.004Z,-2.80
2023-02-07T00:18:12.767Z,-2.90
2023-02-07T00:20:40.587Z,-3.00
2023-02-07T00:23:08.381Z,-3.00
2023-02-07T00:25:36.449Z,-3.00
2023-02-07T00:28:04.752Z,-3.10
2023-02-07T00:30:32.719Z,-3.10
2023-02-07T00:33:01.902Z,-3.10
2023-02-07T00:35:29.645Z,-3.10
2023-02-07T00:37:57.402Z,-3.10
2023-02-07T00:40:25.203Z,-3.10
2023-02-07T00:42:53.004Z,-3.20
2023-02-07T00:45:20.762Z,-3.20
2023-02-07T00:47:48.543Z,-3.30
2023-02-07T00:50:17.895Z,-3.30
2023-02-07T00:52:45.738Z,-3.30
2023-02-07T00:55:13.477Z,-3.30
2023-02-07T00:57:41.283Z,-3.30
2023-02-07T01:00:10.837Z,-3.40
2023-02-07T01:02:38.650Z,-3.50
2023-02-07T01:05:07.489Z,-3.50
2023-02-07T01:07:36.609Z,-3.60
2023-02-07T01:10:04.558Z,-3.60
2023-02-07T01:12:32.380Z,-3.70
2023-02-07T01:15:00.270Z,-3.70
2023-02-07T01:17:28.102Z,-3.80
2023-02-07T01:19:58.547Z,-3.90
2023-02-07T01:22:26.769Z,-3.90
2023-02-07T01:24:56.618Z,-3.90
2023-02-07T01:27:25.327Z,-3.90
2023-02-07T01:29:53.089Z,-3.90
2023-02-07T01:32:20.874Z,-3.90
2023-02-07T01:34:48.634Z,-4.00
2023-02-07T01:37:16.544Z,-4.00
2023-02-07T01:39:44.297Z,-4.10
2023-02-07T01:42:16.590Z,-4.10
2023-02-07T01:45:06.742Z,-4.10
2023-02-07T01:47:35.989Z,-4.10
2023-02-07T01:50:04.714Z,-4.20
2023-02-07T01:52:37.102Z,-4.20
2023-02-07T01:55:09.327Z,-4.20
2023-02-07T01:57:38.560Z,-4.30
2023-02-07T02:00:08.239Z,-4.30
2023-02-07T02:02:38.701Z,-4.30
2023-02-07T02:05:08.004Z,-4.30
2023-02-07T02:07:36.849Z,-4.40
2023-02-07T02:10:07.991Z,-4.40
2023-02-07T02:12:54.057Z,-4.40
2023-02-07T02:15:32.886Z,-4.40
2023-02-07T02:18:17.626Z,-4.40
2023-02-07T02:21:09.391Z,-4.50
2023-02-07T02:23:47.864Z,-4.50
2023-02-07T02:26:51.742Z,-4.50
2023-02-07T02:30:03.410Z,-4.50
2023-02-07T02:33:00.391Z,-4.60
2023-02-07T02:35:34.021Z,-4.60
2023-02-07T02:38:12.352Z,-4.60
2023-02-07T02:40:47.674Z,-4.50
2023-02-07T02:43:24.073Z,-4.50
2023-02-07T02:45:56.983Z,-4.50
2023-02-07T02:48:27.247Z,-4.50
2023-02-07T02:50:56.457Z,-4.50
2023-02-07T02:53:24.910Z,-4.50
2023-02-07T02:56:33.057Z,-4.50
2023-02-07T02:59:18.343Z,-4.60
2023-02-07T03:01:58.416Z,-4.50
2023-02-07T03:04:43.540Z,-4.50
2023-02-07T03:07:24.476Z,-4.50
2023-02-07T03:10:02.614Z,-4.40
2023-02-07T03:12:35.384Z,-4.40
2023-02-07T03:15:06.148Z,-4.40
2023-02-07T03:17:39.738Z,-4.30
2023-02-07T03:20:15.390Z,-4.30
2023-02-07T03:22:45.472Z,-4.30
2023-02-07T03:25:16.008Z,-4.30
2023-02-07T03:27:45.416Z,-4.30
2023-02-07T03:30:17.452Z,-4.30
2023-02-07T03:32:49.655Z,-4.40
2023-02-07T03:35:22.872Z,-4.40
2023-02-07T03:37:53.416Z,-4.60
2023-02-07T03:40:22.150Z,-4.70
2023-02-07T03:42:54.464Z,-4.70
2023-02-07T03:45:23.513Z,-4.60
2023-02-07T03:47:51.299Z,-4.60
2023-02-07T03:50:20.440Z,-4.60
2023-02-07T03:52:48.290Z,-4.60
2023-02-07T03:55:16.330Z,-4.50
2023-02-07T03:57:44.099Z,-4.40
2023-02-07T04:00:12.891Z,-4.30
2023-02-07T04:02:40.831Z,-4.40
2023-02-07T04:05:08.974Z,-4.40
2023-02-07T04:07:38.098Z,-4.40
2023-02-07T04:10:06.522Z,-4.30
2023-02-07T04:12:34.378Z,-4.30
2023-02-07T04:15:03.013Z,-4.40
2023-02-07T04:17:31.472Z,-4.40
2023-02-07T04:20:01.469Z,-4.40
2023-02-07T04:22:29.658Z,-4.40
2023-02-07T04:24:58.858Z,-4.40
2023-02-07T04:27:26.883Z,-4.40
2023-02-07T04:29:54.627Z,-4.40
2023-02-07T04:32:22.405Z,-4.40
2023-02-07T04:34:50.183Z,-4.40
2023-02-07T04:37:17.972Z,-4.40
2023-02-07T04:39:45.836Z,-4.40
2023-02-07T04:42:14.934Z,-4.40
2023-02-07T04:44:42.677Z,-4.50
2023-02-07T04:47:10.477Z,-4.50
2023-02-07T04:49:38.664Z,-4.40
2023-02-07T04:52:06.492Z,-4.30
2023-02-07T04:54:34.286Z,-4.20
2023-02-07T04:57:02.069Z,-4.20
2023-02-07T04:59:31.357Z,-4.10
2023-02-07T05:01:59.119Z,-4.20
2023-02-07T05:04:27.037Z,-4.20
2023-02-07T05:06:54.839Z,-4.20
2023-02-07T05:09:22.806Z,-4.30
2023-02-07T05:11:50.585Z,-4.30
2023-02-07T05:14:18.334Z,-4.30
2023-02-07T05:16:47.487Z,-4.40
2023-02-07T05:19:15.491Z,-4.50
2023-02-07T05:21:43.254Z,-4.50
2023-02-07T05:24:11.038Z,-4.40
2023-02-07T05:26:40.355Z,-4.40
2023-02-07T05:29:08.272Z,-4.60
2023-02-07T05:31:53.853Z,-4.60
2023-02-07T05:34:24.079Z,-4.70
2023-02-07T05:36:51.853Z,-4.70
2023-02-07T05:39:19.630Z,-4.60
2023-02-07T05:41:47.367Z,-4.60
2023-02-07T05:44:15.127Z,-4.70
2023-02-07T05:46:43.128Z,-4.80
2023-02-07T05:49:10.891Z,-5.00
2023-02-07T05:51:40.053Z,-5.20
2023-02-07T05:54:07.839Z,-5.30
2023-02-07T05:56:35.592Z,-5.40
2023-02-07T05:59:03.366Z,-5.40
2023-02-07T06:01:31.125Z,-5.50
2023-02-07T06:03:58.864Z,-5.40
2023-02-07T06:06:26.681Z,-5.50
2023-02-07T06:08:55.796Z,-5.70
2023-02-07T06:11:23.562Z,-5.70
2023-02-07T06:13:51.351Z,-5.70
2023-02-07T06:16:19.157Z,-5.70
2023-02-07T06:18:46.947Z,-5.90
2023-02-07T06:21:15.027Z,-5.90
2023-02-07T06:23:42.786Z,-5.80
2023-02-07T06:26:12.974Z,-5.50
2023-02-07T06:28:40.712Z,-5.70
2023-02-07T06:31:08.556Z,-5.60
2023-02-07T06:33:36.412Z,-5.70
2023-02-07T06:36:04.811Z,-5.70
2023-02-07T06:38:32.719Z,-5.70
2023-02-07T06:41:00.504Z,-5.60
2023-02-07T06:43:29.663Z,-5.80
2023-02-07T06:45:57.478Z,-5.90
2023-02-07T06:48:25.334Z,-5.90
2023-02-07T06:50:53.086Z,-5.80
2023-02-07T06:53:20.934Z,-5.50
2023-02-07T06:55:48.743Z,-5.60
2023-02-07T06:58:16.544Z,-5.70
2023-02-07T07:00:45.743Z,-5.60
2023-02-07T07:03:15.309Z,-5.40
2023-02-07T07:05:43.788Z,-5.30
2023-02-07T07:08:14.648Z,-5.50
2023-02-07T07:10:42.526Z,-5.50
2023-02-07T07:13:10.304Z,-5.60
2023-02-07T07:15:38.474Z,-5.70
2023-02-07T07:18:07.759Z,-5.80
2023-02-07T07:20:35.680Z,-5.80
2023-02-07T07:23:03.444Z,-5.80
2023-02-07T07:25:31.225Z,-5.70
2023-02-07T07:27:59.067Z,-5.60
2023-02-07T07:30:26.907Z,-5.70
2023-02-07T07:32:54.675Z,-5.70
2023-02-07T07:35:24.136Z,-5.60
2023-02-07T07:37:51.886Z,-5.60
2023-02-07T07:40:19.769Z,-5.50
2023-02-07T07:42:47.695Z,-5.20
2023-02-07T07:45:15.443Z,-5.10
2023-02-07T07:47:43.201Z,-4.90
2023-02-07T07:50:11.160Z,-4.80
2023-02-07T07:52:40.282Z,-4.70
2023-02-07T07:55:09.004Z,-4.60
2023-02-07T07:57:37.698Z,-4.50
2023-02-07T08:00:06.370Z,-4.30
2023-02-07T08:02:34.136Z,-4.20
2023-02-07T08:05:01.999Z,-4.20
2023-02-07T08:07:29.850Z,-4.10
2023-02-07T08:09:58.934Z,-4.00
2023-02-07T08:12:26.802Z,-4.00
2023-02-07T08:14:54.558Z,-3.80
2023-02-07T08:17:22.392Z,-3.70
2023-02-07T08:19:50.163Z,-3.60
2023-02-07T08:22:17.951Z,-3.70
2023-02-07T08:24:45.733Z,-3.50
2023-02-07T08:27:14.878Z,-3.40
2023-02-07T08:29:42.630Z,-3.30
2023-02-07T08:32:10.396Z,-3.30
2023-02-07T08:34:38.195Z,-3.20
2023-02-07T08:37:06.596Z,-3.10
2023-02-07T08:39:35.704Z,-3.00
2023-02-07T08:42:05.272Z,-3.00
2023-02-07T08:44:34.404Z,-3.10
2023-02-07T08:47:02.153Z,-2.90
2023-02-07T08:49:29.957Z,-2.70
2023-02-07T08:51:57.780Z,-2.60
2023-02-07T08:54:25.769Z,-2.60
2023-02-07T08:56:53.522Z,-2.50
2023-02-07T08:59:21.316Z,-2.40
2023-02-07T09:01:53.107Z,-2.30
2023-02-07T09:04:20.894Z,-2.30
2023-02-07T09:06:48.720Z,-2.20
2023-02-07T09:09:16.484Z,-2.20
2023-02-07T09:11:44.294Z,-2.10
2023-02-07T09:14:12.112Z,-2.10
2023-02-07T09:16:39.903Z,-2.30
2023-02-07T09:19:09.087Z,-2.20
2023-02-07T09:21:37.846Z,-2.20
2023-02-07T09:24:05.868Z,-2.30
2023-02-07T09:26:35.231Z,-2.30
2023-02-07T09:29:03.319Z,-2.00
2023-02-07T09:31:33.064Z,-1.90
2023-02-07T09:34:02.654Z,-1.70
2023-02-07T09:36:33.118Z,-1.70
2023-02-07T09:39:01.430Z,-1.80
2023-02-07T09:41:37.492Z,-1.70
2023-02-07T09:44:14.047Z,-1.60
2023-02-07T09:46:48.261Z,-1.50
2023-02-07T09:49:28.259Z,-1.60
2023-02-07T09:51:59.113Z,-1.60
2023-02-07T09:54:30.920Z,-1.70
2023-02-07T09:57:03.648Z,-1.70
2023-02-07T09:59:43.773Z,-1.60
2023-02-07T10:02:19.246Z,-1.70
2023-02-07T10:04:50.222Z,-1.60
2023-02-07T10:07:19.532Z,-1.70
2023-02-07T10:09:48.073Z,-1.60
2023-02-07T10:12:42.302Z,-1.50
2023-02-07T10:15:29.334Z,-1.50
2023-02-07T10:18:12.846Z,-1.30
2023-02-07T10:20:47.378Z,-1.40
2023-02-07T10:23:27.991Z,-1.30
2023-02-07T10:26:04.684Z,-1.30
2023-02-07T10:28:50.138Z,-1.20
2023-02-07T10:31:19.138Z,-1.10
2023-02-07T10:33:50.949Z,-1.00
2023-02-07T10:36:19.303Z,-1.00
2023-02-07T10:39:06.932Z,-1.00
2023-02-07T10:41:39.384Z,-1.00
2023-02-07T10:44:09.859Z,-1.10
2023-02-07T10:46:38.717Z,-0.90
2023-02-07T10:49:06.504Z,-0.70
2023-02-07T10:51:36.375Z,-0.80
2023-02-07T10:54:08.927Z,-0.90
2023-02-07T10:56:43.091Z,-0.90
2023-02-07T10:59:38.593Z,-0.80
2023-02-07T11:02:39.523Z,-0.60
2023-02-07T11:05:28.428Z,-0.50
2023-02-07T11:08:01.867Z,-0.30
2023-02-07T11:10:36.121Z,-0.30
2023-02-07T11:13:05.301Z,-0.20
2023-02-07T11:15:38.758Z,-0.20
2023-02-07T11:18:07.557Z,-0.30
2023-02-07T11:20:38.404Z,-0.20
2023-02-07T11:23:11.885Z,-0.30
2023-02-07T11:25:44.538Z,-0.30
2023-02-07T11:28:20.856Z,-0.10
2023-02-07T11:30:55.864Z,-0.10
2023-02-07T11:33:27.607Z,0.10
2023-02-07T11:36:23.333Z,-0.10
2023-02-07T11:38:55.102Z,0.00
2023-02-07T11:41:26.041Z,0.10
2023-02-07T11:43:56.574Z,0.10
2023-02-07T11:46:31.748Z,0.00
2023-02-07T11:49:00.664Z,0.20
2023-02-07T11:51:32.397Z,0.10
2023-02-07T11:54:03.055Z,-0.10
2023-02-07T11:56:37.929Z,0.20
2023-02-07T11:59:08.507Z,0.20
2023-02-07T12:01:37.748Z,0.40
2023-02-07T12:04:11.866Z,0.50
2023-02-07T12:06:43.801Z,0.40
2023-02-07T12:09:23.110Z,0.50
2023-02-07T12:11:54.203Z,0.60
2023-02-07T12:14:29.124Z,0.50
2023-02-07T12:17:00.450Z,0.50
2023-02-07T12:19:33.722Z,0.60
2023-02-07T12:22:07.939Z,0.60
2023-02-07T12:24:39.932Z,0.40
2023-02-07T12:27:15.904Z,0.60
2023-02-07T12:29:54.253Z,0.70
2023-02-07T12:32:30.978Z,0.90
2023-02-07T12:35:04.613Z,0.90
2023-02-07T12:37:41.084Z,0.90
2023-02-07T12:40:19.306Z,1.00
2023-02-07T12:42:55.396Z,1.00
2023-02-07T12:45:36.294Z,0.90
2023-02-07T12:48:17.143Z,1.00
2023-02-07T12:50:55.911Z,1.00
2023-02-07T12:53:34.591Z,1.00
2023-02-07T12:56:15.223Z,1.10
2023-02-07T12:58:53.116Z,1.10
2023-02-07T13:01:29.164Z,1.10
2023-02-07T13:04:12.530Z,1.20
2023-02-07T13:06:49.096Z,1.30
2023-02-07T13:09:25.772Z,1.30
2023-02-07T13:12:02.979Z,1.20
2023-02-07T13:14:42.287Z,1.30
2023-02-07T13:17:29.685Z,1.40
2023-02-07T13:20:03.228Z,1.40
2023-02-07T13:22:36.263Z,1.40
2023-02-07T13:25:07.659Z,1.30
2023-02-07T13:27:37.750Z,1.50
2023-02-07T13:30:14.535Z,1.50
2023-02-07T13:32:42.285Z,1.40
2023-02-07T13:35:15.129Z,1.40
2023-02-07T13:37:49.248Z,1.40
2023-02-07T13:40:28.324Z,1.40
2023-02-07T13:43:01.753Z,1.60
2023-02-07T13:45:40.381Z,1.50
2023-02-07T13:48:18.260Z,1.60
2023-02-07T13:50:53.903Z,1.60
2023-02-07T13:53:33.939Z,1.70
2023-02-07T13:56:04.430Z,1.60
2023-02-07T13:59:11.617Z,1.50
2023-02-07T14:01:50.227Z,1.50
2023-02-07T14:04:19.426Z,1.50
2023-02-07T14:06:58.576Z,1.40
2023-02-07T14:09:34.379Z,1.60
2023-02-07T14:12:05.024Z,1.50
2023-02-07T14:14:34.201Z,1.50
2023-02-07T14:17:05.361Z,1.50
2023-02-07T14:19:51.495Z,1.50
2023-02-07T14:22:22.248Z,1.40
2023-02-07T14:25:13.052Z,1.30
2023-02-07T14:27:42.387Z,1.40
2023-02-07T14:30:22.094Z,1.40
2023-02-07T14:33:14.591Z,1.40
2023-02-07T14:36:04.965Z,1.20
2023-02-07T14:38:37.505Z,1.10
2023-02-07T14:41:11.113Z,1.10
2023-02-07T14:43:56.757Z,1.20
2023-02-07T14:46:36.908Z,1.20
2023-02-07T14:49:12.405Z,1.30
2023-02-07T14:51:45.072Z,1.30
2023-02-07T14:54:19.355Z,1.20
2023-02-07T14:56:56.493Z,1.20
2023-02-07T14:59:30.367Z,1.20
2023-02-07T15:01:58.246Z,1.10
2023-02-07T15:04:27.339Z,1.10
2023-02-07T15:06:55.086Z,1.00
2023-02-07T15:09:26.773Z,0.90
2023-02-07T15:12:08.724Z,1.00
2023-02-07T15:14:41.439Z,0.90
2023-02-07T15:17:09.262Z,0.80
2023-02-07T15:19:41.185Z,0.80
2023-02-07T15:22:23.974Z,0.80
2023-02-07T15:24:56.431Z,0.80
2023-02-07T15:27:26.379Z,0.70
2023-02-07T15:29:57.134Z,0.60
2023-02-07T15:32:27.951Z,0.60
2023-02-07T15:34:57.675Z,0.60
2023-02-07T15:37:27.697Z,0.60
2023-02-07T15:39:56.505Z,0.50
2023-02-07T15:42:24.793Z,0.50
2023-02-07T15:44:54.838Z,0.50
2023-02-07T15:47:37.312Z,0.40
2023-02-07T15:50:09.624Z,0.30
2023-02-07T15:52:41.124Z,0.20
2023-02-07T15:55:19.213Z,0.20
2023-02-07T15:57:46.992Z,0.20
2023-02-07T16:00:18.808Z,0.10
2023-02-07T16:02:56.225Z,0.10
2023-02-07T16:05:28.506Z,0.00
2023-02-07T16:07:57.224Z,0.00
2023-02-07T16:10:39.450Z,0.00
2023-02-07T16:13:18.418Z,-0.20
2023-02-07T16:15:55.776Z,-0.30
2023-02-07T16:18:37.832Z,-0.40
2023-02-07T16:21:11.483Z,-0.40
2023-02-07T16:23:39.656Z,-0.50
2023-02-07T16:26:07.461Z,-0.60
2023-02-07T16:28:35.364Z,-0.70
2023-02-07T16:31:03.397Z,-0.70
2023-02-07T16:33:31.179Z,-0.80
2023-02-07T16:35:58.918Z,-0.90
2023-02-07T16:38:28.013Z,-1.00
2023-02-07T16:40:55.834Z,-1.10
2023-02-07T16:43:37.807Z,-1.20
2023-02-07T16:46:06.588Z,-1.30
2023-02-07T16:48:34.386Z,-1.40
2023-02-07T16:51:02.265Z,-1.40
2023-02-07T16:53:31.395Z,-1.50
2023-02-07T16:56:00.300Z,-1.50
2023-02-07T16:58:31.046Z,-1.60
2023-02-07T17:00:59.296Z,-1.60
2023-02-07T17:03:27.307Z,-1.70
2023-02-07T17:05:55.042Z,-1.90
2023-02-07T17:08:27.070Z,-1.90
2023-02-07T17:10:59.920Z,-2.00
2023-02-07T17:13:27.968Z,-2.20
2023-02-07T17:15:58.032Z,-2.20
2023-02-07T17:18:26.831Z,-2.20
2023-02-07T17:20:55.823Z,-2.20
2023-02-07T17:23:25.194Z,-2.30
2023-02-07T17:25:52.955Z,-2.40
2023-02-07T17:28:22.057Z,-2.40
2023-02-07T17:30:50.420Z,-2.50
2023-02-07T17:33:18.244Z,-2.70
2023-02-07T17:35:45.991Z,-2.90
2023-02-07T17:38:13.829Z,-3.10
2023-02-07T17:40:42.251Z,-3.20
2023-02-07T17:43:10.207Z,-3.20
2023-02-07T17:45:39.385Z,-3.20
2023-02-07T17:48:07.587Z,-3.30
2023-02-07T17:50:39.486Z,-3.50
2023-02-07T17:53:07.597Z,-3.50
2023-02-07T17:55:36.862Z,-3.60
2023-02-07T17:58:05.918Z,-3.60
2023-02-07T18:01:35.111Z,-3.60
2023-02-07T18:04:05.403Z,-3.70
2023-02-07T18:25:31.918Z,-4.00
2023-02-07T18:28:01.342Z,-4.10
2023-02-07T18:30:30.173Z,-4.20
2023-02-07T18:32:59.087Z,-4.00
2023-02-07T18:35:26.838Z,-4.00
2023-02-07T18:37:54.602Z,-4.00
2023-02-07T18:40:22.744Z,-4.10
2023-02-07T18:42:51.863Z,-4.10
2023-02-07T18:45:19.760Z,-4.10
2023-02-07T18:47:49.398Z,-4.10
2023-02-07T18:50:19.496Z,-4.20
2023-02-07T18:52:47.462Z,-4.30
2023-02-07T18:55:15.347Z,-4.10
2023-02-07T18:57:43.122Z,-4.10
2023-02-07T19:00:14.004Z,-4.20
2023-02-07T19:02:41.836Z,-4.40
2023-02-07T19:05:09.886Z,-4.00
2023-02-07T19:07:37.638Z,-3.50
2023-02-07T19:10:05.661Z,-3.70
2023-02-07T19:12:33.449Z,-3.70
2023-02-07T19:15:01.258Z,-3.80
2023-02-07T19:17:30.382Z,-3.70
2023-02-07T19:19:58.148Z,-3.70
2023-02-07T19:22:35.328Z,-3.70
2023-02-07T19:25:03.923Z,-3.80
2023-02-07T19:27:31.741Z,-3.80
2023-02-07T19:29:59.684Z,-4.00
2023-02-07T19:32:27.790Z,-4.10
2023-02-07T19:34:56.996Z,-4.30
2023-02-07T19:37:24.806Z,-4.50
2023-02-07T19:39:55.940Z,-4.50
2023-02-07T19:42:24.626Z,-4.60
2023-02-07T19:44:52.372Z,-4.70
2023-02-07T19:47:20.409Z,-4.80
2023-02-07T19:49:51.623Z,-4.90
2023-02-07T19:52:23.111Z,-5.00
2023-02-07T19:54:50.995Z,-5.00
2023-02-07T19:57:18.862Z,-4.70
2023-02-07T19:59:48.245Z,-4.60
2023-02-07T20:02:16.042Z,-4.40
2023-02-07T20:04:43.877Z,-4.60
2023-02-07T20:07:11.641Z,-4.70
2023-02-07T20:09:40.773Z,-4.70
2023-02-07T20:12:08.878Z,-4.70
2023-02-07T20:14:36.848Z,-4.90
2023-02-07T20:17:04.774Z,-5.00
2023-02-07T20:19:32.727Z,-4.80
2023-02-07T20:22:00.552Z,-4.80
2023-02-07T20:24:28.689Z,-5.00
2023-02-07T20:26:57.805Z,-5.20
2023-02-07T20:29:25.587Z,-5.30
2023-02-07T20:31:53.447Z,-5.50
2023-02-07T20:34:21.228Z,-5.70
2023-02-07T20:36:49.035Z,-5.50
2023-02-07T20:39:18.532Z,-5.50
2023-02-07T20:41:47.228Z,-5.60
2023-02-07T20:44:18.573Z,-5.70
2023-02-07T20:46:48.852Z,-5.80
2023-02-07T20:49:19.610Z,-5.90
2023-02-07T20:51:49.420Z,-6.00
2023-02-07T20:54:19.425Z,-6.00
2023-02-07T20:56:47.766Z,-6.10
2023-02-07T20:59:19.590Z,-6.20
2023-02-07T21:01:47.884Z,-6.30
2023-02-07T21:04:16.319Z,-6.40
2023-02-07T21:06:44.753Z,-6.40
2023-02-07T21:09:14.162Z,-6.50
2023-02-07T21:11:44.991Z,-6.50
2023-02-07T21:14:15.822Z,-6.50
2023-02-07T21:16:45.881Z,-6.60
2023-02-07T21:19:14.681Z,-6.60
2023-02-07T21:21:43.615Z,-6.60
2023-02-07T21:24:11.452Z,-6.70
2023-02-07T21:26:39.317Z,-6.80
2023-02-07T21:29:07.736Z,-6.80
2023-02-07T21:31:36.237Z,-6.80
2023-02-07T21:34:06.098Z,-6.80
2023-02-07T21:36:37.476Z,-6.80
2023-02-07T21:39:09.060Z,-6.80
2023-02-07T21:41:37.941Z,-6.70
2023-02-07T21:44:06.566Z,-6.80
2023-02-07T21:46:36.667Z,-6.80
2023-02-07T21:49:08.930Z,-6.90
2023-02-07T21:51:37.343Z,-7.00
2023-02-07T21:54:07.288Z,-7.00
2023-02-07T21:56:37.815Z,-7.10
2023-02-07T21:59:07.471Z,-7.10
2023-02-07T22:01:36.465Z,-7.10
2023-02-07T22:04:08.720Z,-7.00
2023-02-07T22:06:37.691Z,-6.90
2023-02-07T22:09:05.992Z,-7.00
2023-02-07T22:11:35.671Z,-6.90
2023-02-07T22:14:04.458Z,-6.90
2023-02-07T22:16:33.736Z,-7.00
2023-02-07T22:19:03.760Z,-7.00
2023-02-07T22:21:35.920Z,-7.00
2023-02-07T22:24:05.320Z,-7.00
2023-02-07T22:26:34.503Z,-7.00
2023-02-07T22:29:03.207Z,-6.90
2023-02-07T22:31:33.583Z,-6.90
2023-02-07T22:34:04.328Z,-7.10
2023-02-07T22:36:35.717Z,-7.20
2023-02-07T22:39:05.010Z,-7.10
2023-02-07T22:41:33.690Z,-7.10
2023-02-07T22:44:02.037Z,-7.00
2023-02-07T22:46:30.615Z,-7.00
2023-02-07T22:49:00.157Z,-6.90
2023-02-07T22:51:30.501Z,-6.90
2023-02-07T22:54:03.742Z,-6.70
2023-02-07T22:56:31.819Z,-6.80
2023-02-07T22:58:59.653Z,-6.90
2023-02-07T23:01:29.593Z,-7.00
2023-02-07T23:03:58.589Z,-6.90
2023-02-07T23:06:27.026Z,-6.70
2023-02-07T23:08:55.474Z,-6.80
2023-02-07T23:11:25.213Z,-6.90
2023-02-07T23:13:53.904Z,-7.00
2023-02-07T23:16:24.894Z,-7.20
2023-02-07T23:18:56.088Z,-7.40
2023-02-07T23:21:26.235Z,-7.50
2023-02-07T23:23:54.766Z,-7.40
2023-02-07T23:26:25.790Z,-7.40
2023-02-07T23:28:53.820Z,-7.40
2023-02-07T23:31:22.881Z,-7.20
2023-02-07T23:33:51.848Z,-7.10
2023-02-07T23:36:20.455Z,-7.20
2023-02-07T23:38:49.370Z,-7.40
2023-02-07T23:41:18.143Z,-7.40
2023-02-07T23:43:47.746Z,-6.40
2023-02-07T23:46:16.796Z,-6.10
2023-02-07T23:48:44.721Z,-6.20
2023-02-07T23:51:14.477Z,-6.00
2023-02-07T23:53:42.971Z,-5.60
2023-02-07T23:56:14.447Z,-5.80
2023-02-07T23:58:42.299Z,-6.40
